Time;durP1;ratioP1;P1;durP2;ratioP2;P2;SDS_P1;SDS_P2;PMS_P1;PMS_P2;Temp;Humidity;BMP_temperature;BMP_pressure;BME280_temperature;BME280_humidity;BME280_pressure;Samples;Min_cycle;Max_cycle;Signal;HPM_P1;HPM_P2
2021/04/18 00:01:05;;;;;;;13.57;8.80;;;4.00;99.90;;;;;;8294374;28;20036;-68
2021/04/18 00:05:07;;;;;;;12.02;8.45;;;3.90;99.90;;;;;;8294192;28;20030;-68
2021/04/18 00:09:11;;;;;;;12.10;8.60;;;3.90;99.90;;;;;;8295066;28;20637;-68
2021/04/18 00:13:14;;;;;;;12.73;9.15;;;3.90;99.90;;;;;;8295080;28;20025;-67
2021/04/18 00:17:15;;;;;;;12.70;8.70;;;4.00;99.90;;;;;;8295130;28;20134;-67
2021/04/18 00:21:15;;;;;;;10.73;7.95;;;4.00;99.90;;;;;;8295188;28;20026;-68
2021/04/18 00:25:17;;;;;;;14.93;8.88;;;4.00;99.90;;;;;;8294368;28;20026;-67
2021/04/18 00:29:18;;;;;;;14.73;9.00;;;4.00;99.90;;;;;;8294788;28;20033;-67
2021/04/18 00:33:18;;;;;;;12.90;9.07;;;4.00;99.90;;;;;;8292998;28;20117;-67
2021/04/18 00:37:19;;;;;;;12.48;9.07;;;4.20;99.90;;;;;;8294282;28;20040;-67
2021/04/18 00:41:19;;;;;;;12.02;8.10;;;3.80;99.90;;;;;;8294614;28;20030;-67
2021/04/18 00:45:21;;;;;;;12.02;8.30;;;3.80;99.90;;;;;;8293849;28;20061;-68
2021/04/18 00:49:22;;;;;;;12.85;8.48;;;3.80;99.90;;;;;;8294277;28;20026;-68
2021/04/18 00:53:22;;;;;;;13.75;9.20;;;3.60;99.90;;;;;;8293781;28;20125;-68
2021/04/18 00:57:23;;;;;;;14.55;9.32;;;3.60;99.90;;;;;;8294221;28;20481;-68
2021/04/18 01:01:24;;;;;;;12.75;9.45;;;3.60;99.90;;;;;;8293885;28;20026;-68
2021/04/18 01:05:26;;;;;;;13.82;9.23;;;3.50;99.90;;;;;;8291553;28;20083;-67
2021/04/18 01:09:29;;;;;;;14.30;9.57;;;3.50;99.90;;;;;;8293813;28;20027;-69
2021/04/18 01:13:30;;;;;;;13.07;10.02;;;3.50;99.90;;;;;;8293228;28;20033;-67
2021/04/18 01:17:30;;;;;;;13.55;9.50;;;3.50;99.90;;;;;;8292341;28;20022;-67
2021/04/18 01:21:31;;;;;;;14.90;9.82;;;3.20;99.90;;;;;;8293389;28;20057;-67
2021/04/18 01:25:31;;;;;;;14.02;9.93;;;3.10;99.90;;;;;;8293086;28;20045;-68
2021/04/18 01:29:33;;;;;;;12.15;8.95;;;3.20;99.90;;;;;;8308521;28;20508;-67
2021/04/18 01:33:34;;;;;;;13.98;9.43;;;3.10;99.90;;;;;;8292877;28;20046;-68
2021/04/18 01:37:36;;;;;;;13.63;9.70;;;3.00;99.90;;;;;;8293069;28;20129;-68
2021/04/18 01:41:37;;;;;;;14.75;9.63;;;3.20;99.90;;;;;;8308064;28;20041;-67
2021/04/18 01:45:38;;;;;;;12.75;9.20;;;3.30;99.90;;;;;;8292056;28;20029;-67
2021/04/18 01:49:38;;;;;;;15.65;9.27;;;3.50;99.90;;;;;;8298648;28;20026;-67
2021/04/18 01:53:39;;;;;;;14.65;9.30;;;3.50;99.90;;;;;;8299396;28;20046;-67
2021/04/18 01:57:40;;;;;;;11.77;8.50;;;3.50;99.90;;;;;;8299236;28;20025;-67
2021/04/18 02:01:40;;;;;;;15.60;9.68;;;3.40;99.90;;;;;;8299510;28;20037;-67
2021/04/18 02:05:41;;;;;;;15.85;10.25;;;3.60;99.90;;;;;;8298227;28;20038;-67
2021/04/18 02:09:41;;;;;;;13.43;10.15;;;3.20;99.90;;;;;;8298029;28;20026;-68
2021/04/18 02:13:42;;;;;;;15.23;9.98;;;3.10;99.90;;;;;;8298284;28;20037;-68
2021/04/18 02:17:43;;;;;;;13.48;10.43;;;3.00;99.90;;;;;;8298796;28;20581;-68
2021/04/18 02:21:43;;;;;;;16.23;10.63;;;3.00;99.90;;;;;;8297307;28;20025;-67
2021/04/18 02:25:44;;;;;;;14.07;9.90;;;2.80;99.90;;;;;;8296100;28;20101;-68
2021/04/18 02:29:45;;;;;;;17.15;10.88;;;2.80;99.90;;;;;;8313456;28;20652;-67
2021/04/18 02:33:45;;;;;;;16.45;10.73;;;2.70;99.90;;;;;;8297254;28;20040;-67
2021/04/18 02:37:46;;;;;;;13.77;10.43;;;3.00;99.90;;;;;;8297055;28;20026;-68
2021/04/18 02:41:47;;;;;;;15.18;10.38;;;2.90;99.90;;;;;;8297061;28;20026;-68
2021/04/18 02:45:47;;;;;;;17.05;10.60;;;2.80;99.90;;;;;;8297912;28;20022;-67
2021/04/18 02:49:48;;;;;;;15.77;10.60;;;3.10;99.90;;;;;;8296546;28;20029;-69
2021/04/18 02:53:48;;;;;;;14.52;9.60;;;3.10;99.90;;;;;;8297589;28;20029;-67
2021/04/18 02:57:49;;;;;;;16.02;9.80;;;3.20;99.90;;;;;;8297426;28;20057;-67
2021/04/18 03:01:49;;;;;;;16.35;10.15;;;3.20;99.90;;;;;;8298215;28;20519;-67
2021/04/18 03:05:50;;;;;;;13.65;10.18;;;3.30;99.90;;;;;;8295414;28;20018;-67
2021/04/18 03:09:51;;;;;;;15.23;10.20;;;3.20;99.90;;;;;;8297306;28;20017;-67
2021/04/18 03:13:51;;;;;;;16.85;10.55;;;3.10;99.90;;;;;;8297018;28;20085;-68
2021/04/18 03:17:52;;;;;;;15.35;10.65;;;3.00;99.90;;;;;;8296738;28;20038;-68
2021/04/18 03:21:52;;;;;;;15.32;10.00;;;3.10;99.90;;;;;;8296588;28;20068;-68
2021/04/18 03:25:53;;;;;;;14.48;10.48;;;3.10;99.90;;;;;;8296129;28;20104;-67
2021/04/18 03:29:54;;;;;;;14.60;9.77;;;3.20;99.90;;;;;;8294940;28;20516;-67
2021/04/18 03:33:54;;;;;;;12.40;9.18;;;3.40;99.90;;;;;;8296084;28;20034;-67
2021/04/18 03:37:55;;;;;;;14.75;11.05;;;3.50;99.90;;;;;;8296403;28;20105;-67
2021/04/18 03:41:56;;;;;;;15.45;10.93;;;3.60;99.90;;;;;;8296349;28;20510;-67
2021/04/18 03:45:57;;;;;;;16.20;11.88;;;3.70;99.90;;;;;;8295828;28;20458;-68
2021/04/18 03:49:57;;;;;;;16.30;11.45;;;3.70;99.90;;;;;;8296011;28;20076;-68
2021/04/18 03:53:58;;;;;;;13.40;10.75;;;3.60;99.90;;;;;;8294465;28;20472;-68
2021/04/18 03:57:58;;;;;;;15.75;10.95;;;3.80;99.90;;;;;;8295792;28;20497;-67
2021/04/18 04:01:59;;;;;;;17.98;11.50;;;3.60;99.90;;;;;;8294333;28;20025;-68
2021/04/18 04:05:59;;;;;;;16.80;11.75;;;3.50;99.90;;;;;;8295035;28;20096;-67
2021/04/18 04:10:00;;;;;;;16.27;11.68;;;3.40;99.90;;;;;;8294969;28;20109;-68
2021/04/18 04:14:00;;;;;;;17.02;12.13;;;3.50;99.90;;;;;;8293744;28;20025;-68
2021/04/18 04:18:01;;;;;;;15.68;11.15;;;3.50;99.90;;;;;;8294000;28;20052;-67
2021/04/18 04:22:02;;;;;;;17.67;11.75;;;3.20;99.90;;;;;;8294011;28;20041;-68
2021/04/18 04:26:06;;;;;;;17.60;11.43;;;3.10;99.90;;;;;;8293571;28;20036;-67
2021/04/18 04:30:07;;;;;;;14.52;11.02;;;3.10;99.90;;;;;;8295007;28;20025;-67
2021/04/18 04:34:08;;;;;;;16.50;10.88;;;3.20;99.90;;;;;;8293249;28;20109;-67
2021/04/18 04:38:08;;;;;;;14.82;10.85;;;3.30;99.90;;;;;;8294941;28;20033;-67
2021/04/18 04:42:09;;;;;;;15.20;10.45;;;3.40;99.90;;;;;;8294589;28;20255;-67
2021/04/18 04:46:10;;;;;;;13.85;10.52;;;3.40;99.90;;;;;;8293142;28;20519;-67
2021/04/18 04:50:11;;;;;;;16.42;10.90;;;3.30;99.90;;;;;;8294366;28;20387;-68
2021/04/18 04:54:12;;;;;;;13.88;10.35;;;3.40;99.90;;;;;;8309530;28;20105;-67
2021/04/18 04:58:12;;;;;;;15.77;10.43;;;3.40;99.90;;;;;;8308148;28;20022;-67
2021/04/18 05:02:13;;;;;;;14.50;10.48;;;3.50;99.90;;;;;;8319278;28;20049;-67
2021/04/18 05:06:14;;;;;;;15.90;10.98;;;3.50;99.90;;;;;;8323471;28;20036;-67
2021/04/18 05:10:15;;;;;;;14.38;11.43;;;3.60;99.90;;;;;;8332025;23;20051;-67
2021/04/18 05:14:15;;;;;;;17.42;11.98;;;3.60;99.90;;;;;;8319160;28;20022;-68
2021/04/18 05:18:16;;;;;;;15.40;11.82;;;3.70;99.90;;;;;;8324067;28;20036;-67
2021/04/18 05:22:16;;;;;;;15.98;12.20;;;3.80;99.90;;;;;;8323292;28;20414;-67
2021/04/18 05:26:17;;;;;;;16.33;12.57;;;3.80;99.90;;;;;;8309058;28;20037;-67
2021/04/18 05:30:18;;;;;;;15.48;11.93;;;3.90;99.90;;;;;;8303951;28;20481;-67
2021/04/18 05:34:18;;;;;;;17.30;12.63;;;4.00;99.90;;;;;;8321541;28;20111;-68
2021/04/18 05:38:19;;;;;;;18.90;13.50;;;4.10;99.90;;;;;;8320610;28;20435;-67
2021/04/18 05:42:20;;;;;;;19.30;13.52;;;4.20;99.90;;;;;;8325520;28;20510;-67
2021/04/18 05:46:20;;;;;;;16.33;13.27;;;4.30;99.90;;;;;;8324274;28;20037;-67
2021/04/18 05:50:21;;;;;;;17.55;13.32;;;4.30;99.90;;;;;;8316730;28;20034;-67
2021/04/18 05:54:21;;;;;;;19.85;13.13;;;4.50;99.90;;;;;;8296272;28;20041;-67
2021/04/18 05:58:22;;;;;;;18.88;13.60;;;4.70;99.90;;;;;;8322452;28;20025;-67
2021/04/18 06:02:23;;;;;;;21.23;14.25;;;4.90;99.90;;;;;;8308404;28;20017;-67
2021/04/18 06:06:24;;;;;;;19.88;14.38;;;5.00;99.90;;;;;;8311329;28;20091;-67
2021/04/18 06:10:25;;;;;;;19.25;14.75;;;5.30;99.90;;;;;;8308137;28;20029;-67
2021/04/18 06:14:25;;;;;;;20.25;14.68;;;5.50;99.90;;;;;;8309050;28;20022;-67
2021/04/18 06:18:26;;;;;;;24.17;15.48;;;5.50;99.90;;;;;;8308487;28;20022;-67
2021/04/18 06:22:27;;;;;;;22.88;15.82;;;5.60;99.90;;;;;;8307507;28;20024;-67
2021/04/18 06:26:27;;;;;;;23.48;16.23;;;5.70;99.90;;;;;;8319169;28;20380;-67
2021/04/18 06:30:28;;;;;;;21.73;15.80;;;5.80;99.90;;;;;;8321887;28;20022;-67
2021/04/18 06:34:29;;;;;;;21.63;15.38;;;6.00;99.90;;;;;;8322290;28;20392;-67
2021/04/18 06:38:29;;;;;;;22.35;15.82;;;6.00;99.90;;;;;;8330446;28;20052;-67
2021/04/18 06:42:35;;;;;;;23.42;15.90;;;6.00;99.90;;;;;;8321378;28;20021;-67
2021/04/18 06:46:36;;;;;;;20.70;15.23;;;6.00;99.90;;;;;;8316975;28;20041;-67
2021/04/18 06:50:36;;;;;;;21.65;15.75;;;6.10;99.90;;;;;;8323075;28;20022;-67
2021/04/18 06:54:37;;;;;;;22.35;15.85;;;6.00;99.90;;;;;;8321171;28;20071;-67
2021/04/18 06:58:38;;;;;;;23.73;15.60;;;5.80;99.90;;;;;;8327331;28;20411;-67
2021/04/18 07:02:39;;;;;;;22.95;15.85;;;5.60;99.90;;;;;;8325213;28;20026;-67
2021/04/18 07:06:48;;;;;;;22.67;16.02;;;5.70;99.90;;;;;;8324380;28;20025;-67
2021/04/18 07:10:50;;;;;;;23.65;15.63;;;5.80;99.90;;;;;;8326659;28;20476;-67
2021/04/18 07:14:50;;;;;;;22.33;15.63;;;5.80;99.90;;;;;;8323092;28;20104;-67
2021/04/18 07:18:52;;;;;;;21.20;16.00;;;6.00;99.90;;;;;;8325811;28;20029;-67
2021/04/18 07:22:52;;;;;;;26.77;16.58;;;5.90;99.90;;;;;;8326365;28;20084;-67
2021/04/18 07:26:59;;;;;;;23.23;16.90;;;6.00;99.90;;;;;;8317797;28;20445;-67
2021/04/18 07:31:02;;;;;;;24.98;16.45;;;6.00;99.90;;;;;;8317655;28;20017;-67
2021/04/18 07:35:03;;;;;;;23.77;15.93;;;6.30;99.90;;;;;;8295078;28;20064;-67
2021/04/18 07:39:07;;;;;;;20.67;15.32;;;6.40;99.90;;;;;;8309974;28;20431;-67
2021/04/18 07:43:09;;;;;;;22.40;16.15;;;6.50;99.90;;;;;;8315838;28;20025;-67
2021/04/18 07:47:09;;;;;;;21.15;15.00;;;6.50;99.90;;;;;;8324532;28;20029;-68
2021/04/18 07:51:10;;;;;;;25.55;16.17;;;6.50;99.90;;;;;;8321806;28;20068;-67
2021/04/18 07:55:13;;;;;;;24.85;17.50;;;6.60;99.90;;;;;;8341498;28;20033;-67
2021/04/18 07:59:16;;;;;;;23.13;16.25;;;6.60;99.90;;;;;;8311995;28;20080;-67
2021/04/18 08:03:17;;;;;;;21.92;15.68;;;6.60;99.90;;;;;;8302866;28;20033;-67
2021/04/18 08:07:17;;;;;;;20.33;13.52;;;6.40;99.90;;;;;;8317836;28;20041;-67
2021/04/18 08:11:23;;;;;;;24.05;15.90;;;6.60;99.90;;;;;;8332207;28;20025;-68
2021/04/18 08:15:24;;;;;;;23.38;15.85;;;6.80;99.90;;;;;;8327687;28;20531;-67
2021/04/18 08:19:24;;;;;;;21.10;14.93;;;6.80;99.90;;;;;;8334855;28;20083;-67
2021/04/18 08:23:37;;;;;;;22.50;15.40;;;6.90;99.90;;;;;;8310351;28;20109;-68
2021/04/18 08:28:04;;;;;;;21.65;14.77;;;6.70;99.90;;;;;;8305587;28;20037;-67
2021/04/18 08:32:10;;;;;;;20.10;14.50;;;6.80;99.90;;;;;;8294678;28;20018;-67
2021/04/18 08:36:17;;;;;;;22.33;14.68;;;7.00;99.90;;;;;;8308960;28;20030;-67
2021/04/18 08:40:29;;;;;;;20.85;15.05;;;6.90;99.90;;;;;;8315905;28;20054;-68
2021/04/18 08:44:39;;;;;;;21.45;14.70;;;6.80;99.90;;;;;;8313436;28;20018;-67
2021/04/18 08:48:40;;;;;;;20.83;14.83;;;7.00;99.90;;;;;;8317070;28;20029;-67
2021/04/18 08:52:41;;;;;;;20.02;14.38;;;7.10;99.90;;;;;;8313120;28;20105;-67
2021/04/18 08:56:51;;;;;;;22.15;14.07;;;7.10;99.90;;;;;;8308202;28;20561;-67
2021/04/18 09:00:51;;;;;;;20.47;13.87;;;7.00;99.90;;;;;;8313474;28;20064;-67
2021/04/18 09:05:00;;;;;;;20.80;14.30;;;7.10;99.90;;;;;;8309595;28;20447;-67
2021/04/18 09:09:06;;;;;;;22.60;14.05;;;7.10;99.90;;;;;;8325394;28;20049;-67
2021/04/18 09:13:15;;;;;;;20.52;14.00;;;7.10;99.90;;;;;;8311403;28;20520;-68
2021/04/18 09:17:21;;;;;;;20.13;14.55;;;7.20;99.90;;;;;;8315401;28;20030;-67
2021/04/18 09:21:26;;;;;;;26.38;17.02;;;7.50;99.90;;;;;;8324521;28;20040;-67
2021/04/18 09:25:26;;;;;;;31.33;23.17;;;7.90;99.90;;;;;;8323399;28;20049;-68
2021/04/18 09:29:28;;;;;;;21.48;15.05;;;8.30;99.90;;;;;;8325788;28;20550;-67
2021/04/18 09:33:32;;;;;;;19.52;14.23;;;8.10;99.90;;;;;;8312737;28;20030;-68
2021/04/18 09:37:35;;;;;;;18.88;13.55;;;8.10;99.90;;;;;;8313529;28;20041;-68
2021/04/18 09:41:36;;;;;;;20.92;13.10;;;8.20;99.90;;;;;;8324362;28;20155;-67
2021/04/18 09:45:37;;;;;;;21.33;13.50;;;8.30;99.90;;;;;;8325219;28;20056;-67
2021/04/18 09:49:47;;;;;;;19.58;12.80;;;8.00;99.90;;;;;;8325621;28;20029;-67
2021/04/18 09:54:01;;;;;;;;;;;7.30;99.90;;;;;;8325579;28;20063;-68
2021/04/18 09:58:01;;;;;;;17.20;12.13;;;7.20;99.90;;;;;;8323857;28;20379;-67
2021/04/18 10:02:12;;;;;;;17.98;11.98;;;7.50;99.90;;;;;;8325358;28;20036;-67
2021/04/18 10:06:12;;;;;;;16.65;12.10;;;8.10;99.90;;;;;;8325161;28;20033;-68
2021/04/18 10:10:32;;;;;;;17.83;12.50;;;8.70;99.90;;;;;;8320988;28;20542;-67
2021/04/18 10:14:32;;;;;;;15.90;11.52;;;9.00;99.90;;;;;;8313649;28;20112;-67
2021/04/18 10:18:34;;;;;;;16.20;11.38;;;9.00;99.90;;;;;;8316393;28;20021;-67
2021/04/18 10:22:35;;;;;;;16.52;11.68;;;9.10;99.90;;;;;;8313684;28;20444;-67
2021/04/18 10:26:36;;;;;;;14.02;11.23;;;8.90;99.90;;;;;;8317351;28;20030;-67
2021/04/18 10:30:39;;;;;;;15.77;11.63;;;9.10;99.90;;;;;;8312321;28;20064;-67
2021/04/18 10:34:39;;;;;;;15.35;11.50;;;9.10;99.90;;;;;;8327317;28;21616;-67
2021/04/18 10:38:40;;;;;;;15.20;11.15;;;9.00;99.90;;;;;;8321461;28;20060;-66
2021/04/18 10:42:41;;;;;;;15.65;11.00;;;8.90;99.90;;;;;;8323145;28;20079;-67
2021/04/18 10:46:48;;;;;;;16.15;11.55;;;7.90;99.90;;;;;;8325619;28;20037;-66
2021/04/18 10:50:49;;;;;;;15.90;11.20;;;7.70;99.90;;;;;;8323650;28;20060;-67
2021/04/18 10:54:50;;;;;;;15.60;11.07;;;8.00;99.90;;;;;;8315905;28;20030;-66
2021/04/18 10:58:50;;;;;;;16.73;11.77;;;8.30;99.90;;;;;;8310653;28;20033;-66
2021/04/18 11:02:51;;;;;;;14.68;11.23;;;8.40;99.90;;;;;;8312735;28;20060;-66
2021/04/18 11:06:51;;;;;;;15.77;10.82;;;8.60;99.90;;;;;;8312414;28;20034;-66
2021/04/18 11:10:52;;;;;;;14.75;10.48;;;8.70;99.90;;;;;;8312008;28;20100;-67
2021/04/18 11:14:53;;;;;;;14.73;11.10;;;8.50;99.90;;;;;;8311207;28;20032;-66
2021/04/18 11:18:53;;;;;;;13.88;9.80;;;8.30;99.90;;;;;;8334818;28;20040;-66
2021/04/18 11:22:54;;;;;;;14.45;10.15;;;8.30;99.90;;;;;;8321188;28;20057;-67
2021/04/18 11:26:55;;;;;;;14.80;10.98;;;8.20;99.90;;;;;;8312358;28;20095;-66
2021/04/18 11:30:56;;;;;;;14.98;10.85;;;8.00;99.90;;;;;;8313940;28;20022;-66
2021/04/18 11:34:56;;;;;;;15.38;10.63;;;7.80;99.90;;;;;;8320899;28;20095;-66
2021/04/18 11:38:57;;;;;;;15.02;11.23;;;7.60;99.90;;;;;;8314113;28;20021;-66
2021/04/18 11:42:58;;;;;;;13.77;9.93;;;7.50;99.90;;;;;;8322971;28;20025;-67
2021/04/18 11:46:59;;;;;;;14.57;10.45;;;7.60;99.90;;;;;;8320471;28;20029;-66
2021/04/18 11:50:59;;;;;;;13.25;9.88;;;7.80;99.90;;;;;;8316012;28;20034;-66
2021/04/18 11:55:00;;;;;;;14.18;9.73;;;7.90;99.90;;;;;;8315906;28;20037;-66
2021/04/18 11:59:01;;;;;;;15.40;9.55;;;7.90;99.90;;;;;;8321987;28;20017;-66
2021/04/18 12:03:02;;;;;;;14.18;9.63;;;8.20;99.90;;;;;;8317367;28;20195;-66
2021/04/18 12:07:02;;;;;;;11.63;8.80;;;8.30;99.90;;;;;;8318949;28;20029;-66
2021/04/18 12:11:03;;;;;;;13.57;9.32;;;8.10;99.90;;;;;;8321730;28;20033;-67
2021/04/18 12:15:05;;;;;;;12.00;9.25;;;8.30;99.90;;;;;;8322462;28;20476;-66
2021/04/18 12:19:06;;;;;;;11.93;8.43;;;8.70;99.90;;;;;;8322875;28;20037;-66
2021/04/18 12:23:07;;;;;;;11.90;9.05;;;8.50;99.90;;;;;;8312367;28;20029;-66
2021/04/18 12:27:08;;;;;;;11.82;8.90;;;8.50;99.90;;;;;;8297605;28;20048;-66
2021/04/18 12:31:08;;;;;;;12.20;9.02;;;9.00;99.90;;;;;;8316766;28;20400;-66
2021/04/18 12:35:09;;;;;;;13.82;9.18;;;9.20;99.90;;;;;;8322635;28;20041;-66
2021/04/18 12:39:10;;;;;;;14.93;9.43;;;9.10;99.90;;;;;;8314641;28;20080;-66
2021/04/18 12:43:11;;;;;;;12.38;9.13;;;9.10;99.90;;;;;;8323150;28;20034;-66
2021/04/18 12:47:13;;;;;;;12.57;9.65;;;9.40;99.90;;;;;;8317066;28;20041;-66
2021/04/18 12:51:14;;;;;;;19.15;13.50;;;9.50;99.90;;;;;;8307438;28;20025;-66
2021/04/18 12:55:16;;;;;;;12.80;9.00;;;9.60;99.90;;;;;;8317542;28;20123;-66
2021/04/18 12:59:16;;;;;;;14.57;9.85;;;9.80;99.90;;;;;;8312830;28;20120;-66
2021/04/18 13:03:17;;;;;;;13.52;9.30;;;10.00;99.90;;;;;;8305839;28;20432;-67
2021/04/18 13:07:19;;;;;;;11.98;8.55;;;10.00;99.90;;;;;;8290903;28;20037;-67
2021/04/18 13:11:20;;;;;;;11.55;8.95;;;9.90;99.90;;;;;;8312850;28;20028;-66
2021/04/18 13:15:21;;;;;;;11.32;9.18;;;9.80;99.90;;;;;;8313229;28;20036;-66
2021/04/18 13:19:22;;;;;;;14.52;9.95;;;9.50;99.90;;;;;;8316527;28;20041;-66
2021/04/18 13:23:22;;;;;;;12.93;9.73;;;8.80;99.90;;;;;;8321575;28;20183;-67
2021/04/18 13:27:23;;;;;;;13.73;9.32;;;8.50;99.90;;;;;;8322522;28;20025;-66
2021/04/18 13:31:24;;;;;;;11.90;8.57;;;8.40;99.90;;;;;;8294230;28;20400;-66
2021/04/18 13:35:24;;;;;;;14.75;9.82;;;8.40;99.90;;;;;;8297347;28;20503;-67
2021/04/18 13:39:25;;;;;;;13.40;9.10;;;8.30;99.90;;;;;;8322240;28;20033;-67
2021/04/18 13:43:26;;;;;;;13.48;8.98;;;8.30;99.90;;;;;;8320809;28;20033;-67
2021/04/18 13:47:26;;;;;;;14.60;9.02;;;8.40;99.90;;;;;;8310627;28;20038;-67
2021/04/18 13:51:29;;;;;;;11.95;8.20;;;8.80;99.90;;;;;;8320843;28;20036;-64
2021/04/18 13:55:30;;;;;;;15.90;9.35;;;9.00;99.90;;;;;;8312856;28;20025;-64
2021/04/18 13:59:31;;;;;;;10.52;6.25;;;8.90;99.90;;;;;;8310650;28;20195;-64
2021/04/18 14:03:31;;;;;;;15.02;9.70;;;8.00;99.90;;;;;;8307405;28;20060;-64
2021/04/18 14:07:32;;;;;;;15.48;9.00;;;7.30;99.90;;;;;;8305382;28;20527;-64
2021/04/18 14:11:33;;;;;;;14.63;9.05;;;7.50;99.90;;;;;;8304101;28;20057;-64
2021/04/18 14:15:33;;;;;;;15.88;9.40;;;7.60;99.90;;;;;;8308805;28;20034;-64
2021/04/18 14:19:34;;;;;;;14.30;9.80;;;7.90;99.90;;;;;;8313042;28;20040;-64
2021/04/18 14:23:35;;;;;;;15.32;9.20;;;8.30;99.90;;;;;;8314715;28;20041;-64
2021/04/18 14:27:36;;;;;;;16.00;9.95;;;8.40;99.90;;;;;;8319133;28;20047;-64
2021/04/18 14:31:37;;;;;;;14.85;9.98;;;8.10;99.90;;;;;;8317703;28;20025;-64
2021/04/18 14:35:37;;;;;;;15.80;10.45;;;8.00;99.90;;;;;;8319284;28;20378;-64
2021/04/18 14:39:38;;;;;;;14.75;10.13;;;7.80;99.90;;;;;;8320925;28;20447;-64
2021/04/18 14:43:39;;;;;;;15.85;10.18;;;7.60;99.90;;;;;;8319804;28;20033;-64
2021/04/18 14:47:40;;;;;;;17.92;10.35;;;7.70;99.90;;;;;;8321345;28;20391;-64
2021/04/18 14:51:41;;;;;;;17.05;10.48;;;8.10;99.90;;;;;;8321196;28;20021;-64
2021/04/18 14:55:42;;;;;;;15.50;9.90;;;8.80;99.90;;;;;;8332016;28;20041;-64
2021/04/18 14:59:42;;;;;;;16.65;10.38;;;9.30;99.90;;;;;;8320781;28;20404;-64
2021/04/18 15:03:43;;;;;;;17.23;10.93;;;9.70;99.90;;;;;;8319995;28;20034;-65
2021/04/18 15:07:44;;;;;;;16.75;10.45;;;10.10;99.90;;;;;;8306093;28;20766;-65
2021/04/18 15:11:45;;;;;;;16.48;10.63;;;10.10;99.90;;;;;;8316220;28;20022;-65
2021/04/18 15:15:46;;;;;;;15.48;10.60;;;10.10;99.90;;;;;;8302536;28;20404;-65
2021/04/18 15:19:46;;;;;;;15.27;9.95;;;9.60;99.90;;;;;;8297318;28;20025;-65
2021/04/18 15:23:47;;;;;;;15.40;10.25;;;9.40;99.90;;;;;;8310142;28;20036;-65
2021/04/18 15:27:48;;;;;;;19.48;10.05;;;9.20;99.90;;;;;;8312601;28;20104;-65
2021/04/18 15:31:50;;;;;;;15.60;10.05;;;9.10;99.90;;;;;;8310832;28;20021;-65
2021/04/18 15:35:51;;;;;;;16.35;10.30;;;8.90;99.90;;;;;;8306209;28;20104;-65
2021/04/18 15:39:52;;;;;;;15.93;10.18;;;9.00;99.90;;;;;;8301005;28;20087;-65
2021/04/18 15:43:53;;;;;;;14.13;9.50;;;9.10;99.90;;;;;;8305751;28;20104;-65
2021/04/18 15:47:53;;;;;;;17.20;10.60;;;9.20;99.90;;;;;;8310651;28;20116;-65
2021/04/18 15:51:54;;;;;;;17.70;10.80;;;9.40;99.90;;;;;;8309232;28;20392;-65
2021/04/18 15:55:55;;;;;;;19.52;14.38;;;9.60;99.90;;;;;;8301022;28;20556;-65
2021/04/18 15:59:55;;;;;;;15.13;9.32;;;10.50;99.90;;;;;;8311410;28;20026;-65
2021/04/18 16:03:56;;;;;;;13.90;8.93;;;10.10;99.90;;;;;;8310771;28;20025;-65
2021/04/18 16:07:57;;;;;;;19.70;11.80;;;10.40;99.90;;;;;;8307229;28;20415;-65
2021/04/18 16:11:59;;;;;;;17.27;12.18;;;10.10;99.90;;;;;;8322680;28;20030;-64
2021/04/18 16:16:01;;;;;;;16.80;11.20;;;9.60;99.90;;;;;;8318735;28;20029;-62
2021/04/18 16:20:05;;;;;;;19.65;13.20;;;9.60;99.90;;;;;;8311132;28;20075;-62
2021/04/18 16:24:06;;;;;;;16.65;11.27;;;9.60;99.90;;;;;;8317974;28;20091;-62
2021/04/18 16:28:07;;;;;;;19.48;10.40;;;9.20;99.90;;;;;;8321097;28;20530;-62
2021/04/18 16:32:09;;;;;;;14.20;9.38;;;9.30;99.90;;;;;;8322955;28;20108;-65
2021/04/18 16:36:10;;;;;;;15.82;9.38;;;8.90;99.90;;;;;;8321308;28;20061;-66
2021/04/18 16:40:12;;;;;;;16.13;9.25;;;8.80;99.90;;;;;;8304632;28;20108;-65
2021/04/18 16:44:15;;;;;;;15.48;9.35;;;8.80;99.90;;;;;;8301030;28;20053;-65
2021/04/18 16:48:16;;;;;;;15.02;10.07;;;8.70;99.90;;;;;;8308911;28;20636;-65
2021/04/18 16:52:17;;;;;;;16.92;9.45;;;8.40;99.90;;;;;;8308253;28;20059;-65
2021/04/18 16:56:18;;;;;;;18.27;9.77;;;8.40;99.90;;;;;;8315864;28;20725;-65
2021/04/18 17:00:22;;;;;;;17.40;9.90;;;8.30;99.90;;;;;;8315338;28;20022;-65
2021/04/18 17:04:22;;;;;;;16.02;9.60;;;8.20;99.90;;;;;;8311740;28;20028;-64
2021/04/18 17:08:23;;;;;;;17.23;9.82;;;7.90;99.90;;;;;;8322669;28;20025;-65
2021/04/18 17:12:24;;;;;;;15.82;10.25;;;7.70;99.90;;;;;;8320335;28;20036;-65
2021/04/18 17:16:24;;;;;;;15.38;9.23;;;7.80;99.90;;;;;;8311982;28;20037;-65
2021/04/18 17:20:25;;;;;;;15.25;9.35;;;7.70;99.90;;;;;;8300575;28;20026;-65
2021/04/18 17:24:26;;;;;;;15.55;9.93;;;7.50;99.90;;;;;;8299276;28;20029;-65
2021/04/18 17:28:27;;;;;;;15.55;8.98;;;7.20;99.90;;;;;;8295739;28;20444;-65
2021/04/18 17:32:27;;;;;;;15.25;10.15;;;6.90;99.90;;;;;;8289384;28;20496;-65
2021/04/18 17:36:28;;;;;;;16.42;9.80;;;6.90;99.90;;;;;;8310451;28;20436;-65
2021/04/18 17:40:29;;;;;;;15.68;9.82;;;6.90;99.90;;;;;;8300073;28;20030;-65
2021/04/18 17:44:29;;;;;;;15.38;9.77;;;6.70;99.90;;;;;;8304157;28;20463;-66
2021/04/18 17:48:30;;;;;;;14.82;9.13;;;7.00;99.90;;;;;;8320781;28;20056;-65
2021/04/18 17:52:31;;;;;;;18.10;10.40;;;6.90;99.90;;;;;;8311158;28;20119;-65
2021/04/18 17:56:32;;;;;;;18.90;10.15;;;6.90;99.90;;;;;;8302861;28;20502;-65
2021/04/18 18:00:33;;;;;;;16.70;10.27;;;6.80;99.90;;;;;;8296722;28;20072;-65
2021/04/18 18:04:34;;;;;;;17.65;10.43;;;6.70;99.90;;;;;;8304189;28;20034;-65
2021/04/18 18:08:35;;;;;;;16.48;10.25;;;6.60;99.90;;;;;;8303333;28;20022;-67
2021/04/18 18:12:35;;;;;;;17.65;10.52;;;6.60;99.90;;;;;;8302780;28;20585;-66
2021/04/18 18:16:36;;;;;;;20.05;10.90;;;6.60;99.90;;;;;;8309907;28;20034;-67
2021/04/18 18:20:37;;;;;;;17.42;10.48;;;6.60;99.90;;;;;;8292970;28;20060;-65
2021/04/18 18:24:38;;;;;;;17.98;10.45;;;6.60;99.90;;;;;;8299338;28;20022;-66
2021/04/18 18:28:38;;;;;;;18.85;11.27;;;6.70;99.90;;;;;;8311297;28;20037;-67
2021/04/18 18:32:39;;;;;;;15.70;10.32;;;6.70;99.90;;;;;;8313936;28;20495;-67
2021/04/18 18:36:40;;;;;;;20.38;10.70;;;6.80;99.90;;;;;;8314860;28;20036;-67
2021/04/18 18:40:41;;;;;;;15.77;10.57;;;6.90;99.90;;;;;;8312915;28;20060;-66
2021/04/18 18:44:41;;;;;;;18.80;10.85;;;6.80;99.90;;;;;;8311877;28;20041;-66
2021/04/18 18:48:42;;;;;;;17.90;11.48;;;6.40;99.90;;;;;;8311907;28;20778;-66
2021/04/18 18:52:50;;;;;;;21.85;11.98;;;6.40;99.90;;;;;;8311390;28;20025;-66
2021/04/18 18:56:51;;;;;;;19.95;11.90;;;6.30;99.90;;;;;;8309049;28;20665;-66
2021/04/18 19:00:51;;;;;;;18.85;12.07;;;6.20;99.90;;;;;;8310986;28;20159;-67
2021/04/18 19:04:52;;;;;;;19.38;12.55;;;6.10;99.90;;;;;;8312388;28;20035;-66
2021/04/18 19:08:54;;;;;;;21.77;13.45;;;6.20;99.90;;;;;;8309275;28;20025;-66
2021/04/18 19:12:55;;;;;;;22.85;12.98;;;6.60;99.90;;;;;;8313342;28;20112;-66
2021/04/18 19:16:56;;;;;;;20.15;13.25;;;6.60;99.90;;;;;;8313450;28;20036;-66
2021/04/18 19:20:57;;;;;;;19.30;12.85;;;6.30;99.90;;;;;;8320722;28;20037;-66
2021/04/18 19:24:57;;;;;;;18.80;11.70;;;6.30;99.90;;;;;;8316266;28;20404;-67
2021/04/18 19:28:58;;;;;;;19.15;12.45;;;6.20;99.90;;;;;;8309093;28;20159;-66
2021/04/18 19:32:58;;;;;;;23.67;14.00;;;6.10;99.90;;;;;;8302408;28;20029;-66
2021/04/18 19:36:59;;;;;;;21.30;13.27;;;6.30;99.90;;;;;;8304462;28;20118;-66
2021/04/18 19:41:00;;;;;;;21.85;13.23;;;6.40;99.90;;;;;;8303479;28;20036;-66
2021/04/18 19:45:01;;;;;;;21.88;13.10;;;6.20;99.90;;;;;;8305052;28;20037;-67
2021/04/18 19:49:01;;;;;;;21.77;13.18;;;5.80;99.90;;;;;;8308530;28;20025;-66
2021/04/18 19:53:05;;;;;;;20.52;12.80;;;5.80;99.90;;;;;;8303028;28;20030;-66
2021/04/18 19:57:06;;;;;;;24.35;15.10;;;5.70;99.90;;;;;;8312745;28;20033;-66
2021/04/18 20:01:07;;;;;;;24.20;15.20;;;5.60;99.90;;;;;;8318604;28;20029;-66
2021/04/18 20:05:08;;;;;;;22.50;14.52;;;5.60;99.90;;;;;;8313722;28;20028;-66
2021/04/18 20:09:09;;;;;;;23.20;14.88;;;5.70;99.90;;;;;;8320642;28;20393;-66
2021/04/18 20:13:10;;;;;;;24.02;14.40;;;5.70;99.90;;;;;;8320017;28;20026;-67
2021/04/18 20:17:10;;;;;;;23.55;14.45;;;5.70;99.90;;;;;;8320312;28;20025;-66
2021/04/18 20:21:11;;;;;;;23.83;13.10;;;5.80;99.90;;;;;;8334327;28;20385;-66
2021/04/18 20:25:13;;;;;;;23.65;13.50;;;6.00;99.90;;;;;;8331624;28;20042;-66
2021/04/18 20:29:13;;;;;;;25.05;14.40;;;5.70;99.90;;;;;;8318041;28;20591;-66
2021/04/18 20:33:16;;;;;;;23.13;15.25;;;5.70;99.90;;;;;;8322828;28;20038;-66
2021/04/18 20:37:17;;;;;;;26.05;14.65;;;5.80;99.90;;;;;;8323569;28;20036;-67
2021/04/18 20:41:17;;;;;;;27.67;15.70;;;5.70;99.90;;;;;;8323302;28;20083;-66
2021/04/18 20:45:18;;;;;;;27.25;15.48;;;5.70;99.90;;;;;;8323412;28;20044;-66